Time;durP1;ratioP1;P1;durP2;ratioP2;P2;SDS_P1;SDS_P2;PMS_P1;PMS_P2;Temp;Humidity;BMP_temperature;BMP_pressure;BME280_temperature;BME280_humidity;BME280_pressure;Samples;Min_cycle;Max_cycle;Signal;HPM_P1;HPM_P2
2023/08/21 00:01:25;;;;;;;1.88;1.27;;;22.20;76.70;;;;;;5074144;28;20131;-31
2023/08/21 00:03:52;;;;;;;2.47;1.50;;;21.70;74.80;;;;;;5074043;28;20127;-31
2023/08/21 00:06:19;;;;;;;2.70;1.50;;;23.20;85.30;;;;;;5074256;28;20586;-30
2023/08/21 00:08:46;;;;;;;1.85;1.40;;;;;;;;;;5074276;28;20041;-30
2023/08/21 00:11:13;;;;;;;3.13;1.52;;;22.10;84.70;;;;;;5073199;28;20102;-29
2023/08/21 00:13:39;;;;;;;2.35;1.40;;;22.30;85.00;;;;;;5073962;28;20054;-30
2023/08/21 00:16:06;;;;;;;2.17;1.30;;;;;;;;;;5074098;28;20484;-30
2023/08/21 00:18:34;;;;;;;2.28;1.45;;;22.90;86.00;;;;;;5074128;28;20475;-31
2023/08/21 00:21:01;;;;;;;1.45;1.35;;;22.70;85.20;;;;;;5073770;28;20044;-30
2023/08/21 00:23:28;;;;;;;1.88;1.27;;;22.90;85.30;;;;;;5073687;28;20610;-31
2023/08/21 00:25:55;;;;;;;1.75;1.30;;;21.50;78.60;;;;;;5073084;28;20127;-30
2023/08/21 00:28:21;;;;;;;2.42;1.30;;;23.10;85.70;;;;;;5066020;28;20127;-31
2023/08/21 00:30:48;;;;;;;1.60;1.30;;;;;;;;;;5073808;28;20136;-30
2023/08/21 00:33:15;;;;;;;1.48;1.30;;;22.00;85.10;;;;;;5073576;28;20123;-30
2023/08/21 00:35:44;;;;;;;1.95;1.35;;;22.70;85.50;;;;;;5073559;28;20506;-30
2023/08/21 00:38:11;;;;;;;2.33;1.40;;;;;;;;;;5073026;28;20826;-33
2023/08/21 00:40:38;;;;;;;2.60;1.40;;;22.80;86.00;;;;;;5073562;28;20094;-31
2023/08/21 00:43:05;;;;;;;1.35;1.13;;;;;;;;;;5064429;28;20125;-31
2023/08/21 00:45:32;;;;;;;1.33;1.20;;;22.40;84.90;;;;;;5053623;28;20137;-30
2023/08/21 00:47:58;;;;;;;1.50;1.17;;;23.10;86.20;;;;;;5053614;28;20123;-31
2023/08/21 00:50:25;;;;;;;1.90;1.17;;;22.20;72.20;;;;;;5053124;28;20135;-31
2023/08/21 00:52:53;;;;;;;1.40;1.23;;;22.80;86.00;;;;;;5053389;28;20128;-30
2023/08/21 00:55:20;;;;;;;2.85;1.30;;;22.80;85.00;;;;;;5053427;28;20569;-31
2023/08/21 00:57:47;;;;;;;2.28;1.40;;;23.20;86.00;;;;;;5053370;28;20557;-31
2023/08/21 01:00:14;;;;;;;1.80;1.33;;;22.10;70.90;;;;;;5066651;28;20131;-31
2023/08/21 01:02:41;;;;;;;2.05;1.40;;;22.20;84.80;;;;;;5072714;28;20045;-30
2023/08/21 01:05:09;;;;;;;2.10;1.30;;;22.50;68.90;;;;;;5073099;28;20132;-32
2023/08/21 01:07:39;;;;;;;1.50;1.27;;;22.50;68.90;;;;;;5073320;28;20128;-31
2023/08/21 01:10:10;;;;;;;2.25;1.60;;;22.10;74.10;;;;;;5059729;28;20129;-31
2023/08/21 01:12:41;;;;;;;2.08;1.45;;;23.00;86.20;;;;;;5052831;28;20140;-30
2023/08/21 01:15:09;;;;;;;1.27;1.17;;;;;;;;;;5054288;28;20470;-32
2023/08/21 01:17:37;;;;;;;1.45;1.20;;;22.50;68.90;;;;;;5065508;28;20052;-33
2023/08/21 01:20:06;;;;;;;1.67;1.25;;;22.50;68.90;;;;;;5073095;28;20131;-32
2023/08/21 01:22:36;;;;;;;1.50;1.17;;;22.80;78.60;;;;;;5072330;28;20049;-31
2023/08/21 01:25:05;;;;;;;1.40;1.20;;;23.30;86.30;;;;;;5073019;28;20131;-30
2023/08/21 01:27:32;;;;;;;1.58;1.20;;;;;;;;;;5072470;28;20052;-34
2023/08/21 01:29:59;;;;;;;2.53;1.30;;;22.60;85.40;;;;;;5072775;28;20135;-38
2023/08/21 01:32:43;;;;;;;2.63;1.30;;;22.30;84.90;;;;;;5063086;28;20132;-39
2023/08/21 01:35:10;;;;;;;1.60;1.10;;;;;;;;;;5052380;28;20137;-39
2023/08/21 01:37:37;;;;;;;1.77;1.30;;;;;;;;;;5066864;28;20132;-36
2023/08/21 01:40:06;;;;;;;2.15;1.13;;;22.60;85.20;;;;;;5072266;28;20131;-35
2023/08/21 01:42:33;;;;;;;1.42;1.17;;;22.20;75.20;;;;;;5071955;28;20125;-36
2023/08/21 01:45:00;;;;;;;2.17;1.10;;;23.00;85.70;;;;;;5072471;28;20464;-39
2023/08/21 01:47:26;;;;;;;1.55;1.30;;;23.00;85.30;;;;;;5059942;28;20128;-38
2023/08/21 01:49:53;;;;;;;1.60;1.20;;;;;;;;;;5052317;28;20577;-35
2023/08/21 01:52:20;;;;;;;2.15;1.30;;;22.30;85.30;;;;;;5051961;28;20554;-39
2023/08/21 01:54:47;;;;;;;1.48;1.35;;;;;;;;;;5052072;28;20122;-34
2023/08/21 01:57:15;;;;;;;2.17;1.30;;;22.40;68.80;;;;;;5052235;28;20045;-38
2023/08/21 01:59:42;;;;;;;1.75;1.30;;;21.80;85.40;;;;;;5052381;28;20227;-37
2023/08/21 02:02:09;;;;;;;1.75;1.20;;;22.30;84.90;;;;;;5057317;28;20525;-39
2023/08/21 02:04:36;;;;;;;1.92;1.20;;;22.20;78.90;;;;;;5072048;28;20152;-37
2023/08/21 02:07:02;;;;;;;1.40;1.10;;;22.50;85.30;;;;;;5066149;28;20549;-39
2023/08/21 02:09:29;;;;;;;1.70;1.30;;;21.20;84.20;;;;;;5060153;28;20128;-38
2023/08/21 02:11:56;;;;;;;1.50;1.20;;;22.30;75.40;;;;;;5060475;28;20163;-38
2023/08/21 02:14:24;;;;;;;1.30;1.10;;;22.40;68.70;;;;;;5062281;28;20152;-30
2023/08/21 02:16:50;;;;;;;1.45;1.20;;;22.30;84.70;;;;;;5058156;28;20123;-30
2023/08/21 02:19:17;;;;;;;1.20;1.10;;;;;;;;;;5061713;28;20128;-31
2023/08/21 02:21:44;;;;;;;1.30;1.20;;;22.30;77.90;;;;;;5059824;28;20128;-31
2023/08/21 02:24:11;;;;;;;1.77;1.10;;;22.60;85.40;;;;;;5060688;28;20132;-30
2023/08/21 02:26:38;;;;;;;1.83;1.20;;;22.20;85.10;;;;;;5061181;28;20132;-29
2023/08/21 02:29:04;;;;;;;1.40;1.20;;;22.40;76.30;;;;;;5062890;28;20120;-31
2023/08/21 02:31:32;;;;;;;1.52;1.23;;;21.50;84.80;;;;;;5061846;28;20124;-31
2023/08/21 02:33:59;;;;;;;1.58;1.20;;;22.00;84.60;;;;;;5054199;28;20135;-30
2023/08/21 02:36:26;;;;;;;1.45;1.10;;;;;;;;;;5060833;28;20077;-30
2023/08/21 02:38:53;;;;;;;1.52;1.10;;;22.00;83.60;;;;;;5061025;28;20140;-30
2023/08/21 02:41:20;;;;;;;1.00;0.90;;;;;;;;;;5060158;28;20553;-30
2023/08/21 02:43:47;;;;;;;2.58;1.30;;;;;;;;;;5062141;28;20045;-32
2023/08/21 02:46:14;;;;;;;1.48;1.10;;;22.80;85.70;;;;;;5062309;28;20119;-31
2023/08/21 02:48:42;;;;;;;2.20;1.30;;;22.30;68.60;;;;;;5063804;28;20571;-32
2023/08/21 02:51:08;;;;;;;1.50;1.13;;;22.50;85.10;;;;;;5064880;28;20116;-31
2023/08/21 02:53:35;;;;;;;1.95;1.10;;;22.50;77.50;;;;;;5064309;28;20144;-31
2023/08/21 02:56:02;;;;;;;1.27;1.08;;;21.60;84.10;;;;;;5065197;28;20127;-30
2023/08/21 02:58:28;;;;;;;1.25;1.00;;;22.30;85.30;;;;;;5066285;28;20468;-30
2023/08/21 03:00:55;;;;;;;1.50;1.20;;;22.50;73.70;;;;;;5075203;28;20052;-30
2023/08/21 03:03:22;;;;;;;1.45;1.05;;;22.10;71.10;;;;;;5075231;28;20124;-30
2023/08/21 03:05:50;;;;;;;1.10;1.00;;;21.90;84.80;;;;;;5074615;28;20144;-30
2023/08/21 03:08:17;;;;;;;1.92;1.15;;;;;;;;;;5075323;28;20460;-30
2023/08/21 03:10:44;;;;;;;1.10;1.00;;;;;;;;;;5074933;28;20049;-31
2023/08/21 03:13:11;;;;;;;1.30;1.00;;;23.30;85.70;;;;;;5075063;28;20127;-31
2023/08/21 03:15:38;;;;;;;2.38;1.13;;;;;;;;;;5074842;28;20123;-31
2023/08/21 03:18:05;;;;;;;1.10;1.00;;;21.30;84.30;;;;;;5075195;28;20123;-30
2023/08/21 03:20:32;;;;;;;1.13;1.02;;;;;;;;;;5074791;28;20131;-30
2023/08/21 03:23:00;;;;;;;1.27;0.95;;;22.40;85.10;;;;;;5067026;28;20127;-30
2023/08/21 03:25:28;;;;;;;1.20;1.05;;;22.50;85.00;;;;;;5054969;28;20048;-29
2023/08/21 03:27:54;;;;;;;1.08;0.95;;;23.10;85.60;;;;;;5068776;28;20127;-30
2023/08/21 03:30:21;;;;;;;1.25;1.10;;;21.50;84.90;;;;;;5074923;28;20135;-30
2023/08/21 03:32:48;;;;;;;1.27;1.10;;;;;;;;;;5074405;28;20561;-31
2023/08/21 03:35:15;;;;;;;1.17;0.90;;;21.10;84.20;;;;;;5074743;28;20560;-30
2023/08/21 03:37:42;;;;;;;1.23;0.98;;;21.50;71.30;;;;;;5074055;28;20083;-30
2023/08/21 03:40:11;;;;;;;1.15;1.02;;;22.60;80.50;;;;;;5066428;28;20128;-30
2023/08/21 03:42:38;;;;;;;1.15;1.05;;;;;;;;;;5073028;28;20123;-30
2023/08/21 03:45:05;;;;;;;2.00;1.00;;;22.00;74.40;;;;;;5073422;28;20127;-36
2023/08/21 03:47:32;;;;;;;1.58;1.05;;;;;;;;;;5073098;28;20122;-35
2023/08/21 03:50:00;;;;;;;1.02;0.93;;;22.00;85.00;;;;;;5073555;28;20124;-36
2023/08/21 03:52:27;;;;;;;1.00;0.90;;;;;;;;;;5073144;28;20045;-35
2023/08/21 03:54:54;;;;;;;1.42;1.08;;;22.00;85.00;;;;;;5071914;28;20454;-38
2023/08/21 03:57:22;;;;;;;1.63;1.00;;;22.10;68.40;;;;;;5071635;28;20120;-37
2023/08/21 03:59:49;;;;;;;1.23;1.02;;;;;;;;;;5072487;28;20109;-39
2023/08/21 04:02:15;;;;;;;0.98;0.80;;;22.10;84.70;;;;;;5072721;28;20120;-38
2023/08/21 04:04:42;;;;;;;1.65;1.10;;;22.10;84.70;;;;;;5072986;28;20541;-39
2023/08/21 04:07:09;;;;;;;1.13;0.93;;;;;;;;;;5072926;28;20505;-35
2023/08/21 04:09:36;;;;;;;1.13;1.00;;;21.10;84.20;;;;;;5073208;28;20127;-39
2023/08/21 04:12:03;;;;;;;0.90;0.90;;;;;;;;;;5072056;28;20560;-35
2023/08/21 04:14:31;;;;;;;1.20;1.10;;;22.60;85.80;;;;;;5052446;28;20529;-39
2023/08/21 04:16:58;;;;;;;1.35;1.00;;;22.40;85.20;;;;;;5053092;28;20131;-37
2023/08/21 04:19:29;;;;;;;2.13;1.00;;;;;;;;;;5052741;28;20488;-36
2023/08/21 04:21:56;;;;;;;1.48;1.10;;;21.60;85.20;;;;;;5052446;28;20045;-38
2023/08/21 04:24:23;;;;;;;1.10;1.00;;;21.20;85.20;;;;;;5052748;28;20127;-37
2023/08/21 04:26:50;;;;;;;1.42;1.13;;;;;;;;;;5052648;28;20135;-35
2023/08/21 04:29:16;;;;;;;1.23;1.02;;;21.80;84.60;;;;;;5053767;28;20128;-38
2023/08/21 04:31:44;;;;;;;2.30;1.10;;;22.00;68.30;;;;;;5052556;28;20132;-37
2023/08/21 04:34:12;;;;;;;1.77;1.45;;;22.50;85.50;;;;;;5052531;28;20141;-35
2023/08/21 04:36:39;;;;;;;1.15;1.00;;;;;;;;;;5058909;28;20055;-37
2023/08/21 04:39:06;;;;;;;1.10;1.00;;;21.50;84.80;;;;;;5072627;28;20052;-39
2023/08/21 04:41:33;;;;;;;0.87;0.87;;;;;;;;;;5036678;28;1042178;-36
2023/08/21 04:44:00;;;;;;;1.15;0.98;;;22.00;85.70;;;;;;5073088;28;20127;-38
2023/08/21 04:46:26;;;;;;;1.20;1.10;;;22.00;77.20;;;;;;5058284;28;20052;-36
2023/08/21 04:48:55;;;;;;;1.08;0.98;;;21.80;84.60;;;;;;5053483;28;20132;-35
2023/08/21 04:51:21;;;;;;;1.40;1.20;;;21.90;83.70;;;;;;5053418;28;20488;-37
2023/08/21 04:53:48;;;;;;;1.15;0.98;;;;;;;;;;5052879;28;20132;-38
2023/08/21 04:56:15;;;;;;;1.10;1.00;;;22.30;79.20;;;;;;5053164;28;20132;-36
2023/08/21 04:58:42;;;;;;;1.45;1.00;;;22.30;84.90;;;;;;5053115;28;20477;-39
2023/08/21 05:01:09;;;;;;;1.10;1.00;;;;;;;;;;5055230;28;20152;-35
2023/08/21 05:03:35;;;;;;;0.95;0.93;;;22.20;85.60;;;;;;5071999;28;20049;-38
2023/08/21 05:06:04;;;;;;;0.90;0.90;;;21.60;84.60;;;;;;5073066;28;20131;-36
2023/08/21 05:08:30;;;;;;;1.45;1.02;;;21.80;85.50;;;;;;5072886;28;20135;-39
2023/08/21 05:10:57;;;;;;;1.10;1.00;;;;;;;;;;5071941;28;20147;-35
2023/08/21 05:13:25;;;;;;;1.95;1.08;;;22.70;85.40;;;;;;5072705;28;20135;-38
2023/08/21 05:15:55;;;;;;;1.40;1.10;;;22.20;78.00;;;;;;5073020;28;20052;-38
2023/08/21 05:18:21;;;;;;;1.23;0.90;;;21.60;72.00;;;;;;5070884;28;20045;-35
2023/08/21 05:20:48;;;;;;;1.20;1.00;;;21.60;85.30;;;;;;5072683;28;20468;-36
2023/08/21 05:23:16;;;;;;;1.85;0.90;;;21.50;84.90;;;;;;5072430;28;20690;-38
2023/08/21 05:25:44;;;;;;;1.60;1.00;;;22.30;85.30;;;;;;5072579;28;20132;-35
2023/08/21 05:28:10;;;;;;;1.77;1.05;;;22.10;84.80;;;;;;5072437;28;20056;-39
2023/08/21 05:30:37;;;;;;;1.27;1.10;;;22.20;84.20;;;;;;5072713;28;20150;-36
2023/08/21 05:33:04;;;;;;;1.02;0.90;;;21.30;69.50;;;;;;5072274;28;20128;-36
2023/08/21 05:35:34;;;;;;;1.27;1.10;;;21.90;68.20;;;;;;5070835;28;20048;-36
2023/08/21 05:38:00;;;;;;;1.08;0.98;;;21.90;83.80;;;;;;5071873;28;20083;-37
2023/08/21 05:40:28;;;;;;;1.33;1.00;;;22.50;85.90;;;;;;5063638;28;20132;-39
2023/08/21 05:42:55;;;;;;;2.28;1.10;;;22.10;84.90;;;;;;5052039;28;20140;-37
2023/08/21 05:45:22;;;;;;;1.35;0.90;;;;;;;;;;5052399;28;20128;-39
2023/08/21 05:47:49;;;;;;;1.75;0.95;;;;;;;;;;5052319;28;20127;-33
2023/08/21 05:50:16;;;;;;;0.90;0.90;;;21.90;85.10;;;;;;5071660;28;20120;-39
2023/08/21 05:52:43;;;;;;;1.58;0.77;;;22.60;85.30;;;;;;5071548;28;20127;-35
2023/08/21 05:55:10;;;;;;;1.92;1.00;;;22.50;69.10;;;;;;5072276;28;20072;-39
2023/08/21 05:57:38;;;;;;;1.30;0.80;;;21.80;83.50;;;;;;5072125;28;20091;-36
2023/08/21 06:00:08;;;;;;;1.27;1.00;;;22.30;85.80;;;;;;5072024;28;20131;-35
2023/08/21 06:02:35;;;;;;;1.65;1.00;;;22.60;80.70;;;;;;5065655;28;20136;-36
2023/08/21 06:05:03;;;;;;;1.20;1.08;;;21.90;84.80;;;;;;5059846;28;20068;-36
2023/08/21 06:07:29;;;;;;;1.05;0.90;;;21.70;84.70;;;;;;5064491;28;20106;-34
2023/08/21 06:09:56;;;;;;;1.05;0.93;;;22.70;85.30;;;;;;5072258;28;20131;-35
2023/08/21 06:12:23;;;;;;;1.00;0.90;;;;;;;;;;5071758;28;20468;-33
2023/08/21 06:14:51;;;;;;;0.80;0.80;;;21.90;68.70;;;;;;5072077;28;20086;-33
2023/08/21 06:17:18;;;;;;;2.28;1.00;;;22.20;85.30;;;;;;5071910;28;20127;-36
2023/08/21 06:19:45;;;;;;;2.92;1.10;;;23.00;85.50;;;;;;5070310;28;20124;-38
2023/08/21 06:22:11;;;;;;;2.30;1.00;;;21.70;77.40;;;;;;5071488;28;20103;-35
2023/08/21 06:24:38;;;;;;;3.28;1.58;;;21.80;84.80;;;;;;5072145;28;20136;-36
2023/08/21 06:27:05;;;;;;;2.65;1.00;;;21.80;84.90;;;;;;5071700;28;20147;-38
2023/08/21 06:29:32;;;;;;;1.95;0.95;;;22.10;85.10;;;;;;5071891;28;20079;-36
2023/08/21 06:32:00;;;;;;;1.45;1.00;;;22.10;85.00;;;;;;5071745;28;20131;-36
2023/08/21 06:34:26;;;;;;;1.98;1.00;;;22.10;86.00;;;;;;5068753;28;20148;-36
2023/08/21 06:36:53;;;;;;;1.80;1.00;;;21.80;85.00;;;;;;5069594;28;20115;-35
2023/08/21 06:39:20;;;;;;;1.40;1.17;;;21.50;77.90;;;;;;5071546;28;20131;-35
2023/08/21 06:41:47;;;;;;;1.67;1.00;;;22.10;85.50;;;;;;5071640;28;20135;-36
2023/08/21 06:44:13;;;;;;;2.55;1.08;;;21.40;84.80;;;;;;5071591;28;20127;-35
2023/08/21 06:46:40;;;;;;;1.95;1.27;;;23.00;72.80;;;;;;5071772;28;20079;-36
2023/08/21 06:49:08;;;;;;;2.10;0.88;;;22.10;85.40;;;;;;5071584;28;20052;-35
2023/08/21 06:51:35;;;;;;;1.70;1.08;;;21.20;85.00;;;;;;5071076;28;20135;-36
2023/08/21 06:54:02;;;;;;;1.50;1.20;;;;;;;;;;5071299;28;20073;-32
2023/08/21 06:56:29;;;;;;;1.05;0.90;;;21.90;85.50;;;;;;5071291;28;20508;-35
2023/08/21 06:58:56;;;;;;;1.55;1.00;;;21.30;84.90;;;;;;5071884;28;20132;-38
2023/08/21 07:01:23;;;;;;;1.50;0.98;;;22.40;78.60;;;;;;5060094;28;20111;-34
2023/08/21 07:03:50;;;;;;;1.15;1.00;;;;;;;;;;5053840;28;20060;-36
2023/08/21 07:06:18;;;;;;;1.60;0.90;;;21.80;68.50;;;;;;5051474;28;20128;-36
2023/08/21 07:08:45;;;;;;;2.25;1.02;;;;;;;;;;5064522;28;20064;-33
2023/08/21 07:11:12;;;;;;;1.05;0.90;;;22.30;85.80;;;;;;5057361;28;20124;-34
2023/08/21 07:13:38;;;;;;;4.28;1.00;;;21.80;85.90;;;;;;5055076;28;20049;-36
2023/08/21 07:16:06;;;;;;;1.27;1.00;;;21.30;82.80;;;;;;5051324;28;20124;-34
2023/08/21 07:18:33;;;;;;;2.67;0.90;;;20.90;85.10;;;;;;5051663;28;20433;-38
2023/08/21 07:20:59;;;;;;;1.30;0.90;;;22.10;84.90;;;;;;5051190;28;20144;-35
2023/08/21 07:23:28;;;;;;;1.73;1.10;;;21.90;85.40;;;;;;5052160;28;20128;-38
2023/08/21 07:25:54;;;;;;;1.17;1.00;;;21.60;85.60;;;;;;5051349;28;20491;-36
2023/08/21 07:28:21;;;;;;;1.13;0.90;;;;;;;;;;5063397;28;20488;-37
2023/08/21 07:30:48;;;;;;;1.70;1.00;;;;;;;;;;5066978;28;20127;-37
2023/08/21 07:33:15;;;;;;;1.23;0.90;;;;;;;;;;5061585;28;20129;-35
2023/08/21 07:35:44;;;;;;;1.88;0.98;;;21.40;85.20;;;;;;5067628;28;20144;-36
2023/08/21 07:38:11;;;;;;;0.90;0.80;;;;;;;;;;5061817;28;20047;-35
2023/08/21 07:40:39;;;;;;;1.17;0.95;;;21.50;68.70;;;;;;5065053;28;20141;-34
2023/08/21 07:43:06;;;;;;;2.28;1.20;;;;;;;;;;5053716;28;20068;-35
2023/08/21 07:45:33;;;;;;;1.80;1.08;;;22.80;85.90;;;;;;5054701;28;20128;-34
2023/08/21 07:47:59;;;;;;;1.33;1.00;;;21.90;81.20;;;;;;5054640;28;20044;-35
2023/08/21 07:50:26;;;;;;;1.90;1.08;;;21.80;76.10;;;;;;5059379;28;20136;-34
2023/08/21 07:52:53;;;;;;;2.38;1.00;;;21.70;85.70;;;;;;5074375;28;20127;-33
2023/08/21 07:55:20;;;;;;;1.55;0.93;;;;;;;;;;5074757;28;20088;-37
2023/08/21 07:57:48;;;;;;;1.15;0.90;;;22.00;85.50;;;;;;5074355;28;20128;-36
2023/08/21 08:00:15;;;;;;;1.75;0.82;;;22.00;85.80;;;;;;5074417;28;20059;-36
2023/08/21 08:02:43;;;;;;;1.45;0.82;;;;;;;;;;5074168;28;20127;-34
2023/08/21 08:05:10;;;;;;;1.75;1.30;;;;;;;;;;5074234;28;20211;-36
2023/08/21 08:07:36;;;;;;;1.00;0.90;;;22.00;77.50;;;;;;5062886;28;20557;-35
2023/08/21 08:10:04;;;;;;;1.40;1.00;;;21.60;85.30;;;;;;5054073;28;20132;-29
2023/08/21 08:12:33;;;;;;;1.80;1.00;;;;;;;;;;5053919;28;20137;-32
2023/08/21 08:15:01;;;;;;;1.83;0.82;;;21.50;78.40;;;;;;5054123;28;20052;-30
2023/08/21 08:17:28;;;;;;;1.67;1.10;;;21.90;85.90;;;;;;5054139;28;20140;-30
2023/08/21 08:19:55;;;;;;;2.28;0.88;;;;;;;;;;5053813;28;20127;-30
2023/08/21 08:22:22;;;;;;;2.30;1.20;;;22.20;86.10;;;;;;5053503;28;20137;-32
2023/08/21 08:24:49;;;;;;;0.82;0.80;;;;;;;;;;5069799;28;20139;-31
2023/08/21 08:27:16;;;;;;;1.52;0.90;;;22.80;77.10;;;;;;5074045;28;20136;-30
2023/08/21 08:29:42;;;;;;;1.10;0.88;;;22.30;85.60;;;;;;5074189;28;20136;-37
2023/08/21 08:32:10;;;;;;;1.98;0.90;;;22.10;68.80;;;;;;5073644;28;20135;-34
2023/08/21 08:34:37;;;;;;;1.27;0.93;;;;;;;;;;5067281;28;20132;-31
2023/08/21 08:37:04;;;;;;;1.13;0.80;;;22.20;85.40;;;;;;5062438;28;20119;-38
2023/08/21 08:39:31;;;;;;;1.35;1.05;;;;;;;;;;5062322;28;20110;-33
2023/08/21 08:42:00;;;;;;;0.95;0.80;;;22.50;85.00;;;;;;5062261;28;20045;-35
2023/08/21 08:44:27;;;;;;;2.50;1.30;;;22.70;85.10;;;;;;5061195;28;20052;-35
2023/08/21 08:46:54;;;;;;;1.30;0.80;;;;;;;;;;5061939;28;20673;-32
2023/08/21 08:49:22;;;;;;;1.20;0.77;;;22.40;68.20;;;;;;5060631;28;20170;-36
2023/08/21 08:51:50;;;;;;;2.88;0.90;;;22.50;84.40;;;;;;5060934;28;20127;-35
2023/08/21 08:54:17;;;;;;;1.17;0.90;;;22.40;73.30;;;;;;5063327;28;20131;-36
2023/08/21 08:56:44;;;;;;;1.60;0.90;;;22.50;67.80;;;;;;5054931;28;20128;-33
2023/08/21 08:59:11;;;;;;;1.08;0.80;;;22.10;84.50;;;;;;5053274;28;20132;-35
2023/08/21 09:01:38;;;;;;;1.02;0.90;;;;;;;;;;5054581;28;20488;-34
2023/08/21 09:04:05;;;;;;;3.22;0.93;;;22.60;83.90;;;;;;5070429;28;20128;-37
2023/08/21 09:06:33;;;;;;;1.52;1.10;;;23.00;84.40;;;;;;5053080;28;20140;-34
2023/08/21 09:09:00;;;;;;;1.77;0.88;;;21.70;83.30;;;;;;5053226;28;20144;-38
2023/08/21 09:11:27;;;;;;;1.30;0.98;;;23.80;69.00;;;;;;5053248;28;20128;-33
2023/08/21 09:13:55;;;;;;;1.00;0.90;;;23.00;83.70;;;;;;5052652;28;20144;-36
2023/08/21 09:16:22;;;;;;;1.50;0.98;;;;;;;;;;5051687;28;20084;-35
2023/08/21 09:18:49;;;;;;;2.80;0.77;;;21.80;72.70;;;;;;5065296;28;20135;-34
2023/08/21 09:21:19;;;;;;;2.90;0.95;;;23.70;83.80;;;;;;5072672;28;20131;-30
2023/08/21 09:23:48;;;;;;;2.20;0.93;;;22.80;82.80;;;;;;5072735;28;20128;-31
2023/08/21 09:26:20;;;;;;;1.90;0.90;;;23.00;66.50;;;;;;5072117;28;20052;-33
2023/08/21 09:28:46;;;;;;;1.48;0.80;;;22.60;83.20;;;;;;5072754;28;20048;-29
2023/08/21 09:31:13;;;;;;;1.20;0.80;;;22.40;72.50;;;;;;5072534;28;20139;-30
2023/08/21 09:33:40;;;;;;;1.40;0.85;;;23.20;83.30;;;;;;5070626;28;20123;-29
2023/08/21 09:36:07;;;;;;;1.27;0.85;;;;;;;;;;5059678;28;20124;-31
2023/08/21 09:38:35;;;;;;;1.45;0.90;;;23.30;83.40;;;;;;5072527;28;20131;-31
2023/08/21 09:41:03;;;;;;;0.60;0.60;;;23.50;67.70;;;;;;5072453;28;20083;-32
2023/08/21 09:43:29;;;;;;;1.17;0.90;;;22.80;70.20;;;;;;5071979;28;20517;-30
2023/08/21 09:45:56;;;;;;;1.20;0.80;;;23.00;82.30;;;;;;5072260;28;20131;-29
2023/08/21 09:48:23;;;;;;;2.10;0.90;;;23.60;83.50;;;;;;5064207;28;20128;-29
2023/08/21 09:50:50;;;;;;;1.35;0.88;;;23.50;76.10;;;;;;5059130;28;20055;-30
2023/08/21 09:53:17;;;;;;;1.00;0.80;;;22.70;82.90;;;;;;5061640;28;20052;-30
2023/08/21 09:55:44;;;;;;;2.65;0.90;;;22.90;76.00;;;;;;5063714;28;20079;-31
2023/08/21 09:58:12;;;;;;;1.40;0.80;;;22.80;82.50;;;;;;5071736;28;20072;-37
2023/08/21 10:00:39;;;;;;;1.83;1.17;;;23.60;82.60;;;;;;5071878;28;20132;-37
2023/08/21 10:03:07;;;;;;;2.60;1.02;;;23.20;82.50;;;;;;5071718;28;20106;-37
2023/08/21 10:05:35;;;;;;;2.10;0.80;;;23.10;71.00;;;;;;5068450;28;20387;-34
2023/08/21 10:08:03;;;;;;;1.00;0.90;;;;;;;;;;5061584;28;20128;-35
2023/08/21 10:10:31;;;;;;;1.92;1.00;;;24.00;83.50;;;;;;5057801;28;20059;-37
2023/08/21 10:12:58;;;;;;;2.13;0.98;;;22.80;83.40;;;;;;5051307;28;20132;-35
2023/08/21 10:15:26;;;;;;;2.28;0.95;;;23.10;66.60;;;;;;5051999;28;20142;-38
2023/08/21 10:17:53;;;;;;;0.93;0.82;;;23.20;82.70;;;;;;5052067;28;20136;-35
2023/08/21 10:20:22;;;;;;;1.65;0.90;;;23.10;82.70;;;;;;5051745;28;20128;-35
2023/08/21 10:22:50;;;;;;;1.63;0.90;;;23.50;82.90;;;;;;5056688;28;20044;-35
2023/08/21 10:25:20;;;;;;;1.58;0.80;;;22.90;72.30;;;;;;5071419;28;20124;-34
2023/08/21 10:27:46;;;;;;;2.08;1.13;;;22.70;82.60;;;;;;5072103;28;20084;-33
2023/08/21 10:30:15;;;;;;;1.00;0.90;;;23.80;73.40;;;;;;5071982;28;20131;-33
2023/08/21 10:32:47;;;;;;;4.20;1.00;;;22.90;82.80;;;;;;5071557;28;20079;-36
2023/08/21 10:35:18;;;;;;;1.45;0.80;;;23.00;82.90;;;;;;5071578;28;20052;-34
2023/08/21 10:38:07;;;;;;;1.38;0.95;;;23.00;66.90;;;;;;5071491;28;20132;-32
2023/08/21 10:40:34;;;;;;;0.93;0.80;;;22.30;82.60;;;;;;5068855;28;20047;-35
2023/08/21 10:43:02;;;;;;;1.15;0.77;;;23.00;82.80;;;;;;5071257;28;20071;-35
2023/08/21 10:45:29;;;;;;;1.45;0.70;;;22.60;83.10;;;;;;5071489;28;20097;-34
2023/08/21 10:47:58;;;;;;;1.02;0.80;;;22.70;73.70;;;;;;5065331;28;20116;-35
2023/08/21 10:50:25;;;;;;;1.60;1.00;;;23.50;84.20;;;;;;5068403;28;20084;-34
2023/08/21 10:52:52;;;;;;;2.38;0.90;;;23.10;76.40;;;;;;5051443;28;20049;-33
2023/08/21 10:55:19;;;;;;;1.33;0.75;;;23.50;83.40;;;;;;5051311;28;20132;-36
2023/08/21 10:57:47;;;;;;;2.22;1.00;;;23.00;67.10;;;;;;5051600;28;20123;-35
2023/08/21 11:00:14;;;;;;;2.00;0.90;;;23.00;67.00;;;;;;5051693;28;20144;-37
2023/08/21 11:02:42;;;;;;;4.20;1.00;;;22.80;76.40;;;;;;5061020;28;20120;-38
2023/08/21 11:05:11;;;;;;;3.15;1.10;;;22.80;82.90;;;;;;5071251;28;20049;-33
2023/08/21 11:07:38;;;;;;;3.55;1.10;;;;;;;;;;5062902;28;20196;-35
2023/08/21 11:10:06;;;;;;;3.78;1.10;;;22.70;72.60;;;;;;5064469;28;20127;-34
2023/08/21 11:12:33;;;;;;;2.17;1.13;;;;;;;;;;5062554;28;20052;-33
2023/08/21 11:14:59;;;;;;;2.15;1.00;;;23.70;83.60;;;;;;5065835;28;20119;-35
2023/08/21 11:17:26;;;;;;;1.27;0.98;;;22.70;84.00;;;;;;5055454;28;20136;-34
2023/08/21 11:19:53;;;;;;;5.10;1.00;;;22.10;71.70;;;;;;5062910;28;20119;-34
2023/08/21 11:22:21;;;;;;;3.63;1.00;;;23.00;84.10;;;;;;5064341;28;20036;-36
2023/08/21 11:24:48;;;;;;;2.55;1.00;;;22.80;72.90;;;;;;5062184;28;20135;-35
2023/08/21 11:27:17;;;;;;;3.20;0.90;;;23.00;67.40;;;;;;5063743;28;20128;-33
2023/08/21 11:29:44;;;;;;;1.20;0.70;;;22.90;82.30;;;;;;5064590;28;20123;-35
2023/08/21 11:32:13;;;;;;;2.63;0.82;;;23.00;67.40;;;;;;5059576;28;20083;-33
2023/08/21 11:34:39;;;;;;;1.90;1.17;;;23.10;73.30;;;;;;5054881;28;20128;-36
2023/08/21 11:37:06;;;;;;;1.80;0.88;;;23.50;83.60;;;;;;5073081;28;20435;-33
2023/08/21 11:39:44;;;;;;;2.00;1.00;;;22.90;83.70;;;;;;5074818;28;20155;-36
2023/08/21 11:42:12;;;;;;;3.15;1.20;;;23.00;67.50;;;;;;5074618;28;20059;-32
2023/08/21 11:44:43;;;;;;;1.38;0.90;;;22.60;83.70;;;;;;5074592;28;20045;-38
2023/08/21 11:47:10;;;;;;;1.63;1.00;;;23.00;73.50;;;;;;5073884;28;20119;-33
2023/08/21 11:49:38;;;;;;;3.42;0.90;;;23.70;84.20;;;;;;5074721;28;20125;-35
2023/08/21 11:52:05;;;;;;;1.23;0.88;;;23.20;79.70;;;;;;5074204;28;20060;-34
2023/08/21 11:54:35;;;;;;;2.83;1.20;;;23.00;67.50;;;;;;5074305;28;20140;-34
2023/08/21 11:57:04;;;;;;;1.65;1.00;;;23.00;67.50;;;;;;5074692;28;20052;-35
2023/08/21 11:59:31;;;;;;;1.90;0.90;;;23.10;76.70;;;;;;5074565;28;20131;-34
2023/08/21 12:01:58;;;;;;;1.85;0.93;;;;;;;;;;5074350;28;20143;-33
2023/08/21 12:04:25;;;;;;;2.72;0.90;;;22.70;83.10;;;;;;5073100;28;20049;-36
2023/08/21 12:06:52;;;;;;;4.32;1.17;;;22.90;83.30;;;;;;5074450;28;20135;-38
2023/08/21 12:09:19;;;;;;;0.80;0.70;;;;;;;;;;5074255;28;20483;-38
2023/08/21 12:11:47;;;;;;;1.45;1.00;;;;;;;;;;5074313;28;20071;-33
2023/08/21 12:14:15;;;;;;;1.65;1.02;;;22.60;83.60;;;;;;5070055;28;20068;-39
2023/08/21 12:16:41;;;;;;;2.50;1.10;;;23.50;84.60;;;;;;5054407;28;20053;-38
2023/08/21 12:19:09;;;;;;;1.38;0.90;;;;;;;;;;5056446;28;20111;-35
2023/08/21 12:21:37;;;;;;;1.75;0.88;;;22.30;83.10;;;;;;5053407;28;20048;-37
2023/08/21 12:24:05;;;;;;;0.90;0.90;;;23.50;84.40;;;;;;5052691;28;20045;-39
2023/08/21 12:26:32;;;;;;;1.65;0.90;;;;;;;;;;5052473;28;20490;-36
2023/08/21 12:28:59;;;;;;;1.52;0.80;;;;;;;;;;5052893;28;20574;-34
2023/08/21 12:31:27;;;;;;;2.30;0.95;;;22.40;83.40;;;;;;5053386;28;20128;-30
2023/08/21 12:33:54;;;;;;;1.75;0.90;;;23.20;83.50;;;;;;5063414;28;20124;-34
2023/08/21 12:36:21;;;;;;;1.58;0.90;;;;;;;;;;5061759;28;20068;-29
2023/08/21 12:38:47;;;;;;;1.85;1.00;;;23.20;77.20;;;;;;5062582;28;20124;-32
2023/08/21 12:41:14;;;;;;;1.48;0.90;;;23.70;83.50;;;;;;5063046;28;20132;-30
2023/08/21 12:43:41;;;;;;;1.10;0.80;;;23.90;84.00;;;;;;5063778;28;20123;-30
2023/08/21 12:46:08;;;;;;;1.33;0.90;;;23.30;75.10;;;;;;5073660;28;20136;-32
2023/08/21 12:48:36;;;;;;;1.02;0.80;;;23.50;84.40;;;;;;5073330;28;20557;-30
2023/08/21 12:51:03;;;;;;;1.08;0.88;;;23.30;84.20;;;;;;5067650;28;20073;-30
2023/08/21 12:53:30;;;;;;;1.17;0.90;;;;;;;;;;5053152;28;20075;-31
2023/08/21 12:55:57;;;;;;;1.30;0.90;;;23.60;84.40;;;;;;5053650;28;20130;-30
2023/08/21 12:58:24;;;;;;;1.85;0.88;;;;;;;;;;5054403;28;20467;-33
2023/08/21 13:00:51;;;;;;;2.47;1.00;;;22.60;82.90;;;;;;5056936;28;20123;-31
2023/08/21 13:03:17;;;;;;;1.35;0.88;;;23.10;83.60;;;;;;5068044;28;20127;-29
2023/08/21 13:05:45;;;;;;;1.00;0.90;;;23.00;68.90;;;;;;5073072;28;20055;-32
2023/08/21 13:08:13;;;;;;;2.17;0.90;;;;;;;;;;5073035;28;20470;-31
2023/08/21 13:10:40;;;;;;;2.85;1.00;;;22.60;70.30;;;;;;5073105;28;20051;-31